sensor_id;sensor_type;location;lat;lon;timestamp;pressure;altitude;pressure_sealevel;temperature
76713;BMP280;65640;43.154;25.658;2023-07-08T00:00:39;100606.88;;;20.96
76713;BMP280;65640;43.154;25.658;2023-07-08T00:03:04;100611.06;;;20.81
76713;BMP280;65640;43.154;25.658;2023-07-08T00:05:30;100621.06;;;20.72
76713;BMP280;65640;43.154;25.658;2023-07-08T00:07:56;100633.41;;;20.65
76713;BMP280;65640;43.154;25.658;2023-07-08T00:10:23;100642.13;;;20.65
76713;BMP280;65640;43.154;25.658;2023-07-08T00:12:51;100649.63;;;20.87
76713;BMP280;65640;43.154;25.658;2023-07-08T00:15:19;100649.31;;;21.17
76713;BMP280;65640;43.154;25.658;2023-07-08T00:17:45;100651.34;;;21.08
76713;BMP280;65640;43.154;25.658;2023-07-08T00:20:17;100649.34;;;21.05
76713;BMP280;65640;43.154;25.658;2023-07-08T00:22:44;100644.16;;;21.24
76713;BMP280;65640;43.154;25.658;2023-07-08T00:25:13;100637.34;;;21.38
76713;BMP280;65640;43.154;25.658;2023-07-08T00:27:42;100633.31;;;21.60
76713;BMP280;65640;43.154;25.658;2023-07-08T00:32:41;100631.41;;;21.45
76713;BMP280;65640;43.154;25.658;2023-07-08T00:35:07;100630.72;;;21.48
76713;BMP280;65640;43.154;25.658;2023-07-08T00:37:32;100630.22;;;21.58
76713;BMP280;65640;43.154;25.658;2023-07-08T00:39:58;100636.44;;;21.62
76713;BMP280;65640;43.154;25.658;2023-07-08T00:42:24;100628.00;;;21.60
76713;BMP280;65640;43.154;25.658;2023-07-08T00:44:50;100636.50;;;21.66
76713;BMP280;65640;43.154;25.658;2023-07-08T00:47:15;100640.03;;;21.70
76713;BMP280;65640;43.154;25.658;2023-07-08T00:49:45;100629.69;;;21.68
76713;BMP280;65640;43.154;25.658;2023-07-08T00:52:29;100635.34;;;21.51
76713;BMP280;65640;43.154;25.658;2023-07-08T00:55:00;100644.97;;;21.40
76713;BMP280;65640;43.154;25.658;2023-07-08T00:57:31;100643.59;;;21.30
76713;BMP280;65640;43.154;25.658;2023-07-08T01:00:14;100645.25;;;21.23
76713;BMP280;65640;43.154;25.658;2023-07-08T01:02:48;100641.00;;;21.18
76713;BMP280;65640;43.154;25.658;2023-07-08T01:05:20;100638.88;;;21.12
76713;BMP280;65640;43.154;25.658;2023-07-08T01:07:51;100639.91;;;21.07
76713;BMP280;65640;43.154;25.658;2023-07-08T01:10:22;100641.59;;;21.00
76713;BMP280;65640;43.154;25.658;2023-07-08T01:12:52;100645.47;;;21.02
76713;BMP280;65640;43.154;25.658;2023-07-08T01:15:21;100641.50;;;20.96
76713;BMP280;65640;43.154;25.658;2023-07-08T01:17:48;100638.31;;;20.90
76713;BMP280;65640;43.154;25.658;2023-07-08T01:20:19;100639.19;;;20.82
76713;BMP280;65640;43.154;25.658;2023-07-08T01:22:45;100639.09;;;20.79
76713;BMP280;65640;43.154;25.658;2023-07-08T01:25:12;100639.47;;;20.77
76713;BMP280;65640;43.154;25.658;2023-07-08T01:27:41;100645.09;;;20.88
76713;BMP280;65640;43.154;25.658;2023-07-08T01:30:10;100638.19;;;20.87
76713;BMP280;65640;43.154;25.658;2023-07-08T01:32:48;100649.44;;;20.80
76713;BMP280;65640;43.154;25.658;2023-07-08T01:35:15;100653.97;;;20.80
76713;BMP280;65640;43.154;25.658;2023-07-08T01:37:43;100656.00;;;20.99
76713;BMP280;65640;43.154;25.658;2023-07-08T01:40:16;100659.50;;;21.15
76713;BMP280;65640;43.154;25.658;2023-07-08T01:42:41;100648.38;;;21.25
76713;BMP280;65640;43.154;25.658;2023-07-08T01:45:12;100645.25;;;21.23
76713;BMP280;65640;43.154;25.658;2023-07-08T01:47:38;100652.13;;;21.24
76713;BMP280;65640;43.154;25.658;2023-07-08T01:50:05;100635.94;;;21.29
76713;BMP280;65640;43.154;25.658;2023-07-08T01:52:31;100641.44;;;21.36
76713;BMP280;65640;43.154;25.658;2023-07-08T01:54:56;100645.47;;;21.30
76713;BMP280;65640;43.154;25.658;2023-07-08T01:57:22;100635.28;;;21.20
76713;BMP280;65640;43.154;25.658;2023-07-08T01:59:47;100638.66;;;21.17
76713;BMP280;65640;43.154;25.658;2023-07-08T02:02:13;100642.88;;;21.18
76713;BMP280;65640;43.154;25.658;2023-07-08T02:04:38;100644.38;;;21.19
76713;BMP280;65640;43.154;25.658;2023-07-08T02:07:03;100639.94;;;21.23
76713;BMP280;65640;43.154;25.658;2023-07-08T02:09:30;100634.38;;;21.28
76713;BMP280;65640;43.154;25.658;2023-07-08T02:11:55;100631.63;;;21.24
76713;BMP280;65640;43.154;25.658;2023-07-08T02:14:21;100630.06;;;21.23
76713;BMP280;65640;43.154;25.658;2023-07-08T02:16:46;100623.06;;;21.19
76713;BMP280;65640;43.154;25.658;2023-07-08T02:19:12;100616.63;;;21.04
76713;BMP280;65640;43.154;25.658;2023-07-08T02:21:38;100622.13;;;21.11
76713;BMP280;65640;43.154;25.658;2023-07-08T02:24:04;100618.03;;;21.14
76713;BMP280;65640;43.154;25.658;2023-07-08T02:26:30;100617.16;;;21.10
76713;BMP280;65640;43.154;25.658;2023-07-08T02:28:59;100608.50;;;21.13
76713;BMP280;65640;43.154;25.658;2023-07-08T02:31:25;100617.41;;;21.05
76713;BMP280;65640;43.154;25.658;2023-07-08T02:33:51;100627.78;;;20.82
76713;BMP280;65640;43.154;25.658;2023-07-08T02:36:17;100633.94;;;20.70
76713;BMP280;65640;43.154;25.658;2023-07-08T02:38:43;100638.81;;;20.68
76713;BMP280;65640;43.154;25.658;2023-07-08T02:41:08;100635.38;;;20.56
76713;BMP280;65640;43.154;25.658;2023-07-08T02:43:33;100640.84;;;20.47
76713;BMP280;65640;43.154;25.658;2023-07-08T02:45:59;100644.19;;;20.44
76713;BMP280;65640;43.154;25.658;2023-07-08T02:48:24;100640.97;;;20.51
76713;BMP280;65640;43.154;25.658;2023-07-08T02:50:49;100643.16;;;20.49
76713;BMP280;65640;43.154;25.658;2023-07-08T02:53:15;100642.41;;;20.48
76713;BMP280;65640;43.154;25.658;2023-07-08T02:55:40;100650.41;;;20.48
76713;BMP280;65640;43.154;25.658;2023-07-08T02:58:08;100651.50;;;20.47
76713;BMP280;65640;43.154;25.658;2023-07-08T03:00:34;100645.38;;;20.59
76713;BMP280;65640;43.154;25.658;2023-07-08T03:03:03;100642.81;;;20.62
76713;BMP280;65640;43.154;25.658;2023-07-08T03:05:28;100651.00;;;20.69
76713;BMP280;65640;43.154;25.658;2023-07-08T03:07:54;100658.22;;;20.69
76713;BMP280;65640;43.154;25.658;2023-07-08T03:10:19;100658.09;;;20.65
76713;BMP280;65640;43.154;25.658;2023-07-08T03:12:45;100655.44;;;20.65
76713;BMP280;65640;43.154;25.658;2023-07-08T03:15:10;100664.72;;;20.83
76713;BMP280;65640;43.154;25.658;2023-07-08T03:17:35;100663.41;;;20.89
76713;BMP280;65640;43.154;25.658;2023-07-08T03:20:01;100666.22;;;20.97
76713;BMP280;65640;43.154;25.658;2023-07-08T03:22:26;100663.75;;;21.04
76713;BMP280;65640;43.154;25.658;2023-07-08T03:24:52;100670.66;;;21.05
76713;BMP280;65640;43.154;25.658;2023-07-08T03:27:17;100669.50;;;21.18
76713;BMP280;65640;43.154;25.658;2023-07-08T03:29:43;100664.09;;;21.14
76713;BMP280;65640;43.154;25.658;2023-07-08T03:32:10;100670.69;;;21.20
76713;BMP280;65640;43.154;25.658;2023-07-08T03:34:36;100669.13;;;21.19
76713;BMP280;65640;43.154;25.658;2023-07-08T03:37:02;100675.00;;;21.25
76713;BMP280;65640;43.154;25.658;2023-07-08T03:39:27;100673.44;;;21.24
76713;BMP280;65640;43.154;25.658;2023-07-08T03:41:53;100680.72;;;21.39
76713;BMP280;65640;43.154;25.658;2023-07-08T03:44:18;100681.25;;;21.44
76713;BMP280;65640;43.154;25.658;2023-07-08T03:46:45;100685.72;;;21.40
76713;BMP280;65640;43.154;25.658;2023-07-08T03:49:11;100689.44;;;21.24
76713;BMP280;65640;43.154;25.658;2023-07-08T03:51:39;100691.47;;;21.15
76713;BMP280;65640;43.154;25.658;2023-07-08T03:54:07;100689.72;;;21.07
76713;BMP280;65640;43.154;25.658;2023-07-08T03:56:33;100695.28;;;21.14
76713;BMP280;65640;43.154;25.658;2023-07-08T03:58:59;100703.84;;;21.23
76713;BMP280;65640;43.154;25.658;2023-07-08T04:01:25;100696.31;;;21.25
76713;BMP280;65640;43.154;25.658;2023-07-08T04:03:54;100697.88;;;21.26
76713;BMP280;65640;43.154;25.658;2023-07-08T04:06:20;100689.44;;;21.24
76713;BMP280;65640;43.154;25.658;2023-07-08T04:08:46;100705.31;;;21.20
76713;BMP280;65640;43.154;25.658;2023-07-08T04:11:13;100704.28;;;21.37
76713;BMP280;65640;43.154;25.658;2023-07-08T04:13:39;100702.88;;;21.43
76713;BMP280;65640;43.154;25.658;2023-07-08T04:16:05;100697.31;;;21.48
76713;BMP280;65640;43.154;25.658;2023-07-08T04:18:31;100692.44;;;21.50
76713;BMP280;65640;43.154;25.658;2023-07-08T04:20:56;100694.19;;;21.58
76713;BMP280;65640;43.154;25.658;2023-07-08T04:23:22;100689.44;;;21.52
76713;BMP280;65640;43.154;25.658;2023-07-08T04:25:48;100692.22;;;21.43
76713;BMP280;65640;43.154;25.658;2023-07-08T04:28:14;100689.22;;;21.44
76713;BMP280;65640;43.154;25.658;2023-07-08T04:30:40;100687.69;;;21.43
76713;BMP280;65640;43.154;25.658;2023-07-08T04:33:12;100689.13;;;21.41
76713;BMP280;65640;43.154;25.658;2023-07-08T04:35:38;100690.09;;;21.33
76713;BMP280;65640;43.154;25.658;2023-07-08T04:38:08;100696.22;;;21.49
76713;BMP280;65640;43.154;25.658;2023-07-08T04:40:38;100699.31;;;21.51
76713;BMP280;65640;43.154;25.658;2023-07-08T04:43:08;100704.28;;;21.37
76713;BMP280;65640;43.154;25.658;2023-07-08T04:45:34;100703.84;;;21.23
76713;BMP280;65640;43.154;25.658;2023-07-08T04:48:00;100709.00;;;21.16
76713;BMP280;65640;43.154;25.658;2023-07-08T04:50:25;100705.81;;;21.10
76713;BMP280;65640;43.154;25.658;2023-07-08T04:52:50;100710.75;;;21.24
76713;BMP280;65640;43.154;25.658;2023-07-08T04:55:16;100710.06;;;21.27
76713;BMP280;65640;43.154;25.658;2023-07-08T04:57:41;100712.50;;;21.32
76713;BMP280;65640;43.154;25.658;2023-07-08T05:00:09;100708.66;;;21.45
76713;BMP280;65640;43.154;25.658;2023-07-08T05:02:38;100714.88;;;21.49
76713;BMP280;65640;43.154;25.658;2023-07-08T05:05:03;100712.88;;;21.46
76713;BMP280;65640;43.154;25.658;2023-07-08T05:07:29;100716.44;;;21.50
76713;BMP280;65640;43.154;25.658;2023-07-08T05:09:54;100718.66;;;21.64
76713;BMP280;65640;43.154;25.658;2023-07-08T05:12:20;100718.09;;;21.70
76713;BMP280;65640;43.154;25.658;2023-07-08T05:14:45;100714.38;;;21.75
76713;BMP280;65640;43.154;25.658;2023-07-08T05:17:10;100721.31;;;21.64
76713;BMP280;65640;43.154;25.658;2023-07-08T05:19:36;100730.63;;;21.54
76713;BMP280;65640;43.154;25.658;2023-07-08T05:22:01;100728.78;;;21.42
76713;BMP280;65640;43.154;25.658;2023-07-08T05:24:27;100737.44;;;21.39
76713;BMP280;65640;43.154;25.658;2023-07-08T05:26:53;100741.69;;;21.40
76713;BMP280;65640;43.154;25.658;2023-07-08T05:29:18;100736.72;;;21.55
76713;BMP280;65640;43.154;25.658;2023-07-08T05:31:43;100735.38;;;21.61
76713;BMP280;65640;43.154;25.658;2023-07-08T05:34:09;100727.97;;;21.54
76713;BMP280;65640;43.154;25.658;2023-07-08T05:36:34;100741.06;;;21.47
76713;BMP280;65640;43.154;25.658;2023-07-08T05:38:59;100735.84;;;21.51
76713;BMP280;65640;43.154;25.658;2023-07-08T05:41:25;100735.19;;;21.54
76713;BMP280;65640;43.154;25.658;2023-07-08T05:43:50;100736.19;;;21.49
76713;BMP280;65640;43.154;25.658;2023-07-08T05:46:16;100739.81;;;21.57
76713;BMP280;65640;43.154;25.658;2023-07-08T05:48:41;100741.84;;;21.75
76713;BMP280;65640;43.154;25.658;2023-07-08T05:51:07;100740.81;;;21.95
76713;BMP280;65640;43.154;25.658;2023-07-08T05:53:32;100738.59;;;21.98
76713;BMP280;65640;43.154;25.658;2023-07-08T05:55:57;100746.41;;;21.90
76713;BMP280;65640;43.154;25.658;2023-07-08T05:58:23;100748.41;;;21.93
76713;BMP280;65640;43.154;25.658;2023-07-08T06:00:55;100748.63;;;21.88
76713;BMP280;65640;43.154;25.658;2023-07-08T06:03:20;100751.31;;;21.88
76713;BMP280;65640;43.154;25.658;2023-07-08T06:05:46;100747.47;;;22.02
76713;BMP280;65640;43.154;25.658;2023-07-08T06:08:11;100746.16;;;22.11
76713;BMP280;65640;43.154;25.658;2023-07-08T06:10:42;100741.94;;;22.10
76713;BMP280;65640;43.154;25.658;2023-07-08T06:13:08;100746.44;;;22.06
76713;BMP280;65640;43.154;25.658;2023-07-08T06:15:34;100738.59;;;22.13
76713;BMP280;65640;43.154;25.658;2023-07-08T06:17:59;100741.94;;;22.10
76713;BMP280;65640;43.154;25.658;2023-07-08T06:20:27;100740.41;;;22.09
76713;BMP280;65640;43.154;25.658;2023-07-08T06:22:53;100742.66;;;22.07
76713;BMP280;65640;43.154;25.658;2023-07-08T06:25:19;100734.72;;;22.11
76713;BMP280;65640;43.154;25.658;2023-07-08T06:27:44;100740.66;;;22.20
76713;BMP280;65640;43.154;25.658;2023-07-08T06:30:09;100743.66;;;22.03
76713;BMP280;65640;43.154;25.658;2023-07-08T06:32:35;100744.22;;;22.08
76713;BMP280;65640;43.154;25.658;2023-07-08T06:35:00;100737.38;;;22.11
76713;BMP280;65640;43.154;25.658;2023-07-08T06:37:26;100746.88;;;22.08
76713;BMP280;65640;43.154;25.658;2023-07-08T06:39:51;100749.44;;;22.05
76713;BMP280;65640;43.154;25.658;2023-07-08T06:42:17;100751.06;;;22.09
76713;BMP280;65640;43.154;25.658;2023-07-08T06:44:42;100741.00;;;22.18
76713;BMP280;65640;43.154;25.658;2023-07-08T06:47:16;100740.66;;;22.20
76713;BMP280;65640;43.154;25.658;2023-07-08T06:49:42;100759.00;;;22.21
76713;BMP280;65640;43.154;25.658;2023-07-08T06:52:07;100756.75;;;22.23
76713;BMP280;65640;43.154;25.658;2023-07-08T06:54:32;100749.94;;;22.26
76713;BMP280;65640;43.154;25.658;2023-07-08T06:56:58;100765.97;;;22.26
76713;BMP280;65640;43.154;25.658;2023-07-08T06:59:23;100753.31;;;22.23
76713;BMP280;65640;43.154;25.658;2023-07-08T07:01:48;100750.03;;;22.29
76713;BMP280;65640;43.154;25.658;2023-07-08T07:04:14;100747.16;;;22.54
76713;BMP280;65640;43.154;25.658;2023-07-08T07:06:39;100735.97;;;22.83
76713;BMP280;65640;43.154;25.658;2023-07-08T07:09:05;100741.84;;;23.08
76713;BMP280;65640;43.154;25.658;2023-07-08T07:11:30;100741.22;;;23.14
76713;BMP280;65640;43.154;25.658;2023-07-08T07:13:55;100738.47;;;23.30
76713;BMP280;65640;43.154;25.658;2023-07-08T07:16:22;100737.59;;;23.45
76713;BMP280;65640;43.154;25.658;2023-07-08T07:18:47;100741.00;;;23.65
76713;BMP280;65640;43.154;25.658;2023-07-08T07:21:15;100738.34;;;23.65
76713;BMP280;65640;43.154;25.658;2023-07-08T07:23:40;100736.19;;;23.51
76713;BMP280;65640;43.154;25.658;2023-07-08T07:26:06;100747.47;;;23.41
76713;BMP280;65640;43.154;25.658;2023-07-08T07:28:32;100746.97;;;23.35
76713;BMP280;65640;43.154;25.658;2023-07-08T07:30:59;100750.69;;;23.31
76713;BMP280;65640;43.154;25.658;2023-07-08T07:33:25;100753.59;;;23.41
76713;BMP280;65640;43.154;25.658;2023-07-08T07:35:50;100753.66;;;23.68
76713;BMP280;65640;43.154;25.658;2023-07-08T07:38:16;100749.50;;;23.70
76713;BMP280;65640;43.154;25.658;2023-07-08T07:40:42;100744.13;;;23.47
76713;BMP280;65640;43.154;25.658;2023-07-08T07:43:07;100759.41;;;23.28
76713;BMP280;65640;43.154;25.658;2023-07-08T07:45:33;100758.28;;;23.10
76713;BMP280;65640;43.154;25.658;2023-07-08T07:47:58;100758.28;;;22.90
76713;BMP280;65640;43.154;25.658;2023-07-08T07:50:24;100769.38;;;22.73
76713;BMP280;65640;43.154;25.658;2023-07-08T07:52:49;100758.44;;;22.63
76713;BMP280;65640;43.154;25.658;2023-07-08T07:55:15;100766.00;;;22.61
76713;BMP280;65640;43.154;25.658;2023-07-08T07:57:40;100767.34;;;22.51
76713;BMP280;65640;43.154;25.658;2023-07-08T08:00:07;100763.97;;;22.38
76713;BMP280;65640;43.154;25.658;2023-07-08T08:02:34;100766.88;;;22.33
76713;BMP280;65640;43.154;25.658;2023-07-08T08:05:00;100770.78;;;22.36
76713;BMP280;65640;43.154;25.658;2023-07-08T08:07:25;100783.53;;;22.27
76713;BMP280;65640;43.154;25.658;2023-07-08T08:09:51;100781.00;;;22.34
76713;BMP280;65640;43.154;25.658;2023-07-08T08:12:16;100781.97;;;22.26
76713;BMP280;65640;43.154;25.658;2023-07-08T08:14:41;100785.78;;;22.25
76713;BMP280;65640;43.154;25.658;2023-07-08T08:17:07;100784.28;;;22.12
76713;BMP280;65640;43.154;25.658;2023-07-08T08:19:32;100786.03;;;22.20
76713;BMP280;65640;43.154;25.658;2023-07-08T08:21:58;100789.97;;;22.26
76713;BMP280;65640;43.154;25.658;2023-07-08T08:24:23;100791.00;;;22.37
76713;BMP280;65640;43.154;25.658;2023-07-08T08:26:48;100786.34;;;22.50
76713;BMP280;65640;43.154;25.658;2023-07-08T08:29:14;100796.84;;;22.58
76713;BMP280;65640;43.154;25.658;2023-07-08T08:31:39;100792.69;;;22.61
76713;BMP280;65640;43.154;25.658;2023-07-08T08:34:05;100803.47;;;22.64
76713;BMP280;65640;43.154;25.658;2023-07-08T08:36:30;100815.31;;;22.48
76713;BMP280;65640;43.154;25.658;2023-07-08T08:38:56;100804.63;;;22.48
76713;BMP280;65640;43.154;25.658;2023-07-08T08:41:30;100813.13;;;22.53
76713;BMP280;65640;43.154;25.658;2023-07-08T08:43:56;100812.00;;;22.54
76713;BMP280;65640;43.154;25.658;2023-07-08T08:47:31;100820.56;;;22.44
76713;BMP280;65640;43.154;25.658;2023-07-08T08:49:37;100822.50;;;22.31
76713;BMP280;65640;43.154;25.658;2023-07-08T08:52:05;100818.13;;;22.23
76713;BMP280;65640;43.154;25.658;2023-07-08T08:54:32;100811.13;;;22.19
76713;BMP280;65640;43.154;25.658;2023-07-08T08:57:00;100809.09;;;22.28
76713;BMP280;65640;43.154;25.658;2023-07-08T08:59:37;100809.53;;;22.30
76713;BMP280;65640;43.154;25.658;2023-07-08T09:02:41;100812.97;;;22.46
76713;BMP280;65640;43.154;25.658;2023-07-08T09:05:10;100822.06;;;22.61
76713;BMP280;65640;43.154;25.658;2023-07-08T09:07:47;100813.81;;;22.66
76713;BMP280;65640;43.154;25.658;2023-07-08T09:10:47;100820.88;;;22.58
76713;BMP280;65640;43.154;25.658;2023-07-08T09:13:40;100830.19;;;22.48
76713;BMP280;65640;43.154;25.658;2023-07-08T09:24:27;100833.81;;;22.25
76713;BMP280;65640;43.154;25.658;2023-07-08T09:26:55;100835.38;;;22.14
76713;BMP280;65640;43.154;25.658;2023-07-08T09:29:24;100835.50;;;22.02
76713;BMP280;65640;43.154;25.658;2023-07-08T09:31:49;100838.84;;;21.86
76713;BMP280;65640;43.154;25.658;2023-07-08T09:34:19;100835.25;;;21.67
76713;BMP280;65640;43.154;25.658;2023-07-08T09:36:47;100841.22;;;21.48
76713;BMP280;65640;43.154;25.658;2023-07-08T09:39:14;100837.50;;;21.37
76713;BMP280;65640;43.154;25.658;2023-07-08T09:41:42;100842.03;;;21.36
76713;BMP280;65640;43.154;25.658;2023-07-08T09:44:25;100835.16;;;21.35
76713;BMP280;65640;43.154;25.658;2023-07-08T09:46:56;100820.91;;;21.43
76713;BMP280;65640;43.154;25.658;2023-07-08T09:49:32;100818.47;;;21.51
76713;BMP280;65640;43.154;25.658;2023-07-08T09:51:58;100802.91;;;21.80
76713;BMP280;65640;43.154;25.658;2023-07-08T09:54:25;100795.28;;;22.10
76713;BMP280;65640;43.154;25.658;2023-07-08T09:56:55;100799.88;;;22.41
76713;BMP280;65640;43.154;25.658;2023-07-08T09:59:38;100789.16;;;22.72
76713;BMP280;65640;43.154;25.658;2023-07-08T10:04:46;100778.63;;;23.33
76713;BMP280;65640;43.154;25.658;2023-07-08T10:07:16;100768.22;;;23.70
76713;BMP280;65640;43.154;25.658;2023-07-08T10:09:42;100763.06;;;24.03
76713;BMP280;65640;43.154;25.658;2023-07-08T10:12:11;100768.41;;;24.26
76713;BMP280;65640;43.154;25.658;2023-07-08T10:14:43;100762.47;;;24.40
76713;BMP280;65640;43.154;25.658;2023-07-08T10:17:15;100764.69;;;24.90
76713;BMP280;65640;43.154;25.658;2023-07-08T10:19:41;100760.72;;;25.47
76713;BMP280;65640;43.154;25.658;2023-07-08T10:22:40;100759.03;;;25.32
76713;BMP280;65640;43.154;25.658;2023-07-08T10:28:12;100744.63;;;25.47
76713;BMP280;65640;43.154;25.658;2023-07-08T10:31:05;100744.13;;;25.38
76713;BMP280;65640;43.154;25.658;2023-07-08T10:33:57;100747.47;;;25.28
76713;BMP280;65640;43.154;25.658;2023-07-08T10:36:49;100750.56;;;24.93
76713;BMP280;65640;43.154;25.658;2023-07-08T10:39:42;100748.03;;;24.74
76713;BMP280;65640;43.154;25.658;2023-07-08T10:45:07;100749.66;;;24.56
76713;BMP280;65640;43.154;25.658;2023-07-08T10:47:49;100747.75;;;24.53
76713;BMP280;65640;43.154;25.658;2023-07-08T10:56:23;100755.13;;;24.63
76713;BMP280;65640;43.154;25.658;2023-07-08T11:01:53;100750.00;;;24.81
76713;BMP280;65640;43.154;25.658;2023-07-08T11:07:21;100756.38;;;25.02
76713;BMP280;65640;43.154;25.658;2023-07-08T11:10:02;100752.28;;;25.12
76713;BMP280;65640;43.154;25.658;2023-07-08T11:15:21;100749.59;;;25.49
76713;BMP280;65640;43.154;25.658;2023-07-08T11:17:59;100743.13;;;25.53
76713;BMP280;65640;43.154;25.658;2023-07-08T11:20:45;100737.22;;;25.77
76713;BMP280;65640;43.154;25.658;2023-07-08T11:25:53;100734.06;;;25.65
76713;BMP280;65640;43.154;25.658;2023-07-08T11:28:21;100743.69;;;25.73
76713;BMP280;65640;43.154;25.658;2023-07-08T11:30:50;100741.91;;;25.91
76713;BMP280;65640;43.154;25.658;2023-07-08T11:33:20;100744.75;;;26.12
76713;BMP280;65640;43.154;25.658;2023-07-08T11:35:53;100747.38;;;26.05
76713;BMP280;65640;43.154;25.658;2023-07-08T11:38:24;100740.69;;;26.40
76713;BMP280;65640;43.154;25.658;2023-07-08T11:43:19;100747.88;;;27.18
76713;BMP280;65640;43.154;25.658;2023-07-08T11:45:48;100740.97;;;27.84
76713;BMP280;65640;43.154;25.658;2023-07-08T11:50:45;100724.72;;;28.23
76713;BMP280;65640;43.154;25.658;2023-07-08T11:55:58;100729.69;;;28.32
76713;BMP280;65640;43.154;25.658;2023-07-08T11:58:26;100735.53;;;28.13
76713;BMP280;65640;43.154;25.658;2023-07-08T12:04:01;100739.06;;;27.57
76713;BMP280;65640;43.154;25.658;2023-07-08T12:06:48;100741.75;;;27.39
76713;BMP280;65640;43.154;25.658;2023-07-08T12:09:27;100743.22;;;27.05
76713;BMP280;65640;43.154;25.658;2023-07-08T12:11:59;100735.59;;;27.38
76713;BMP280;65640;43.154;25.658;2023-07-08T12:14:27;100740.97;;;27.81
76713;BMP280;65640;43.154;25.658;2023-07-08T12:16:54;100724.25;;;28.39
76713;BMP280;65640;43.154;25.658;2023-07-08T12:19:22;100724.56;;;28.58
76713;BMP280;65640;43.154;25.658;2023-07-08T12:21:51;100723.06;;;28.47
76713;BMP280;65640;43.154;25.658;2023-07-08T12:24:22;100713.91;;;28.30
76713;BMP280;65640;43.154;25.658;2023-07-08T12:26:52;100727.13;;;27.82
76713;BMP280;65640;43.154;25.658;2023-07-08T12:29:17;100743.66;;;27.49
76713;BMP280;65640;43.154;25.658;2023-07-08T12:31:43;100747.78;;;26.79
76713;BMP280;65640;43.154;25.658;2023-07-08T12:34:14;100754.28;;;26.03
76713;BMP280;65640;43.154;25.658;2023-07-08T12:36:43;100763.66;;;25.35
76713;BMP280;65640;43.154;25.658;2023-07-08T12:39:11;100755.47;;;24.88
76713;BMP280;65640;43.154;25.658;2023-07-08T12:41:41;100749.97;;;24.47
76713;BMP280;65640;43.154;25.658;2023-07-08T12:44:19;100752.94;;;24.16
76713;BMP280;65640;43.154;25.658;2023-07-08T12:46:46;100754.78;;;23.89
76713;BMP280;65640;43.154;25.658;2023-07-08T12:49:15;100763.16;;;23.84
76713;BMP280;65640;43.154;25.658;2023-07-08T12:51:43;100763.19;;;23.65
76713;BMP280;65640;43.154;25.658;2023-07-08T12:54:10;100770.16;;;23.50
76713;BMP280;65640;43.154;25.658;2023-07-08T12:56:37;100770.22;;;23.54
76713;BMP280;65640;43.154;25.658;2023-07-08T12:59:04;100761.81;;;23.14
76713;BMP280;65640;43.154;25.658;2023-07-08T13:01:30;100755.44;;;22.83
76713;BMP280;65640;43.154;25.658;2023-07-08T13:04:03;100754.41;;;22.53
76713;BMP280;65640;43.154;25.658;2023-07-08T13:06:31;100751.94;;;22.29
76713;BMP280;65640;43.154;25.658;2023-07-08T13:09:07;100755.66;;;22.24
76713;BMP280;65640;43.154;25.658;2023-07-08T13:11:34;100762.34;;;22.18
76713;BMP280;65640;43.154;25.658;2023-07-08T13:14:05;100766.66;;;22.23
76713;BMP280;65640;43.154;25.658;2023-07-08T13:16:33;100765.09;;;22.22
76713;BMP280;65640;43.154;25.658;2023-07-08T13:18:59;100775.09;;;22.25
76713;BMP280;65640;43.154;25.658;2023-07-08T13:21:26;100761.22;;;22.19
76713;BMP280;65640;43.154;25.658;2023-07-08T13:23:53;100755.81;;;22.16
76713;BMP280;65640;43.154;25.658;2023-07-08T13:26:25;100752.34;;;22.31
76713;BMP280;65640;43.154;25.658;2023-07-08T13:29:00;100746.63;;;22.64
76713;BMP280;65640;43.154;25.658;2023-07-08T13:31:32;100748.38;;;22.91
76713;BMP280;65640;43.154;25.658;2023-07-08T13:34:09;100752.03;;;23.02
76713;BMP280;65640;43.154;25.658;2023-07-08T13:36:38;100752.09;;;23.25
76713;BMP280;65640;43.154;25.658;2023-07-08T13:39:12;100749.94;;;23.30
76713;BMP280;65640;43.154;25.658;2023-07-08T13:41:42;100744.84;;;23.44
76713;BMP280;65640;43.154;25.658;2023-07-08T13:44:08;100746.38;;;23.65
76713;BMP280;65640;43.154;25.658;2023-07-08T13:46:52;100741.31;;;24.05
76713;BMP280;65640;43.154;25.658;2023-07-08T13:49:30;100732.63;;;24.38
76713;BMP280;65640;43.154;25.658;2023-07-08T13:52:22;100735.91;;;24.54
76713;BMP280;65640;43.154;25.658;2023-07-08T13:54:54;100734.69;;;24.81
76713;BMP280;65640;43.154;25.658;2023-07-08T13:57:24;100726.13;;;25.02
76713;BMP280;65640;43.154;25.658;2023-07-08T13:59:53;100723.81;;;25.34
76713;BMP280;65640;43.154;25.658;2023-07-08T14:02:25;100732.25;;;25.36
76713;BMP280;65640;43.154;25.658;2023-07-08T14:04:52;100733.88;;;25.44
76713;BMP280;65640;43.154;25.658;2023-07-08T14:07:21;100739.97;;;25.41
76713;BMP280;65640;43.154;25.658;2023-07-08T14:09:47;100735.44;;;25.45
76713;BMP280;65640;43.154;25.658;2023-07-08T14:12:12;100721.38;;;25.62
76713;BMP280;65640;43.154;25.658;2023-07-08T14:14:38;100721.72;;;26.11
76713;BMP280;65640;43.154;25.658;2023-07-08T14:17:04;100721.50;;;26.41
76713;BMP280;65640;43.154;25.658;2023-07-08T14:19:30;100716.09;;;26.38
76713;BMP280;65640;43.154;25.658;2023-07-08T14:22:00;100716.41;;;26.22
76713;BMP280;65640;43.154;25.658;2023-07-08T14:24:26;100720.41;;;25.84
76713;BMP280;65640;43.154;25.658;2023-07-08T14:26:53;100721.88;;;25.74
76713;BMP280;65640;43.154;25.658;2023-07-08T14:29:18;100722.16;;;26.17
76713;BMP280;65640;43.154;25.658;2023-07-08T14:31:43;100718.09;;;26.48
76713;BMP280;65640;43.154;25.658;2023-07-08T14:34:12;100710.88;;;26.66
76713;BMP280;65640;43.154;25.658;2023-07-08T14:36:37;100708.63;;;26.78
76713;BMP280;65640;43.154;25.658;2023-07-08T14:39:13;100707.09;;;26.88